createdAt,value
2019-04-06T00:00:17.186Z,21.67
2019-04-06T00:02:43.563Z,21.67
2019-04-06T00:05:09.907Z,21.65
2019-04-06T00:07:36.254Z,21.64
2019-04-06T00:10:02.599Z,21.66
2019-04-06T00:12:31.048Z,21.63
2019-04-06T00:14:57.413Z,21.61
2019-04-06T00:17:23.824Z,21.62
2019-04-06T00:19:50.205Z,21.61
2019-04-06T00:22:16.485Z,21.62
2019-04-06T00:24:42.873Z,21.58
2019-04-06T00:27:09.338Z,21.59
2019-04-06T00:29:35.768Z,21.57
2019-04-06T00:32:02.064Z,21.58
2019-04-06T00:34:28.434Z,21.55
2019-04-06T00:36:54.762Z,21.54
2019-04-06T00:39:21.195Z,21.54
2019-04-06T00:41:47.539Z,21.54
2019-04-06T00:44:13.883Z,21.55
2019-04-06T00:46:40.219Z,21.55
2019-04-06T00:49:06.629Z,21.52
2019-04-06T00:51:32.965Z,21.52
2019-04-06T00:53:59.346Z,21.49
2019-04-06T00:56:25.850Z,21.49
2019-04-06T00:58:53.406Z,21.49
2019-04-06T01:01:19.726Z,21.48
2019-04-06T01:03:46.065Z,21.48
2019-04-06T01:06:12.518Z,21.47
2019-04-06T01:08:38.865Z,21.45
2019-04-06T01:11:05.130Z,21.44
2019-04-06T01:13:31.498Z,21.46
2019-04-06T01:15:57.831Z,21.42
2019-04-06T01:18:24.162Z,21.46
2019-04-06T01:20:50.498Z,21.43
2019-04-06T01:23:16.865Z,21.40
2019-04-06T01:25:43.156Z,21.39
2019-04-06T01:28:09.498Z,21.42
2019-04-06T01:30:35.857Z,21.42
2019-04-06T01:33:02.187Z,21.39
2019-04-06T01:35:28.561Z,21.40
2019-04-06T01:37:54.951Z,21.40
2019-04-06T01:40:21.305Z,21.36
2019-04-06T01:42:47.784Z,21.35
2019-04-06T01:45:14.078Z,21.37
2019-04-06T01:47:40.362Z,21.37
2019-04-06T01:50:06.744Z,21.35
2019-04-06T01:52:33.274Z,21.36
2019-04-06T01:54:59.432Z,21.33
2019-04-06T01:57:25.768Z,21.34
2019-04-06T01:59:52.115Z,21.32
2019-04-06T02:02:18.456Z,21.33
2019-04-06T02:04:44.923Z,21.34
2019-04-06T02:07:11.240Z,21.31
2019-04-06T02:09:37.576Z,21.30
2019-04-06T02:12:04.012Z,21.31
2019-04-06T02:14:30.420Z,21.33
2019-04-06T02:16:56.888Z,21.28
2019-04-06T02:19:26.327Z,21.28
2019-04-06T02:21:52.620Z,21.29
2019-04-06T02:24:18.952Z,21.28
2019-04-06T02:26:45.298Z,21.27
2019-04-06T02:29:11.643Z,21.27
2019-04-06T02:31:37.978Z,21.27
2019-04-06T02:34:04.353Z,21.24
2019-04-06T02:36:30.721Z,21.22
2019-04-06T02:38:57.041Z,21.23
2019-04-06T02:41:23.432Z,21.24
2019-04-06T02:43:49.716Z,21.25
2019-04-06T02:46:16.040Z,21.20
2019-04-06T02:48:42.429Z,21.21
2019-04-06T02:51:08.767Z,21.20
2019-04-06T02:53:35.177Z,21.20
2019-04-06T02:56:01.471Z,21.22
2019-04-06T02:58:27.850Z,21.21
2019-04-06T03:00:54.124Z,21.19
2019-04-06T03:03:20.527Z,21.18
2019-04-06T03:05:46.794Z,21.18
2019-04-06T03:08:13.203Z,21.16
2019-04-06T03:10:39.554Z,21.17
2019-04-06T03:13:05.899Z,21.17
2019-04-06T03:15:32.297Z,21.17
2019-04-06T03:17:58.702Z,21.15
2019-04-06T03:20:25.026Z,21.15
2019-04-06T03:22:51.371Z,21.16
2019-04-06T03:25:17.744Z,21.14
2019-04-06T03:27:44.076Z,21.13
2019-04-06T03:30:10.452Z,21.14
2019-04-06T03:32:36.963Z,21.11
2019-04-06T03:35:03.167Z,21.13
2019-04-06T03:37:29.572Z,21.11
2019-04-06T03:39:55.891Z,21.09
2019-04-06T03:42:22.370Z,21.11
2019-04-06T03:44:48.659Z,21.09
2019-04-06T03:47:15.045Z,21.09
2019-04-06T03:49:41.342Z,21.11
2019-04-06T03:52:07.711Z,21.10
2019-04-06T03:54:34.151Z,21.08
2019-04-06T03:57:13.634Z,21.07
2019-04-06T03:59:26.770Z,21.08
2019-04-06T04:01:53.123Z,21.08
2019-04-06T04:04:19.518Z,21.07
2019-04-06T04:06:45.936Z,21.08
2019-04-06T04:09:12.373Z,21.06
2019-04-06T04:11:38.699Z,21.06
2019-04-06T04:14:05.268Z,21.06
2019-04-06T04:16:31.482Z,21.08
2019-04-06T04:18:57.876Z,21.06
2019-04-06T04:21:24.232Z,21.10
2019-04-06T04:23:50.564Z,21.07
2019-04-06T04:26:17.009Z,21.13
2019-04-06T04:28:43.578Z,21.13
2019-04-06T04:31:09.768Z,21.16
2019-04-06T04:33:36.179Z,21.17
2019-04-06T04:36:02.639Z,21.15
2019-04-06T04:38:28.968Z,21.18
2019-04-06T04:40:55.506Z,21.24
2019-04-06T04:43:21.642Z,21.28
2019-04-06T04:45:48.000Z,21.33
2019-04-06T04:48:14.576Z,21.34
2019-04-06T04:50:40.682Z,21.36
2019-04-06T04:53:07.049Z,21.38
2019-04-06T04:55:33.405Z,21.37
2019-04-06T04:57:59.804Z,21.42
2019-04-06T05:00:26.137Z,21.44
2019-04-06T05:02:52.541Z,21.46
2019-04-06T05:05:18.840Z,21.48
2019-04-06T05:07:45.238Z,21.53
2019-04-06T05:10:11.559Z,21.55
2019-04-06T05:12:37.882Z,21.62
2019-04-06T05:15:04.553Z,21.65
2019-04-06T05:17:30.578Z,21.68
2019-04-06T05:19:56.949Z,21.73
2019-04-06T05:22:23.298Z,21.76
2019-04-06T05:24:49.665Z,21.77
2019-04-06T05:27:16.106Z,21.79
2019-04-06T05:29:42.435Z,21.79
2019-04-06T05:32:08.718Z,21.79
2019-04-06T05:34:35.055Z,21.81
2019-04-06T05:37:01.412Z,21.82
2019-04-06T05:39:27.852Z,21.80
2019-04-06T05:41:54.296Z,21.78
2019-04-06T05:44:20.712Z,21.79
2019-04-06T05:46:47.142Z,21.77
2019-04-06T05:49:13.415Z,21.78
2019-04-06T05:51:39.790Z,21.77
2019-04-06T05:54:06.120Z,21.76
2019-04-06T05:56:32.660Z,21.79
2019-04-06T05:58:58.843Z,21.78
2019-04-06T06:01:25.289Z,21.80
2019-04-06T06:03:51.664Z,21.83
2019-04-06T06:06:18.161Z,21.83
2019-04-06T06:08:44.454Z,21.88
2019-04-06T06:11:10.802Z,21.87
2019-04-06T06:13:39.151Z,21.87
2019-04-06T06:16:03.495Z,21.87
2019-04-06T06:18:29.830Z,21.85
2019-04-06T06:20:56.214Z,21.89
2019-04-06T06:23:22.571Z,21.89
2019-04-06T06:25:48.943Z,21.89
2019-04-06T06:28:15.616Z,21.92
2019-04-06T06:30:41.653Z,21.95
2019-04-06T06:33:08.053Z,21.94
2019-04-06T06:35:34.354Z,22.04
2019-04-06T06:38:00.723Z,22.01
2019-04-06T06:40:27.116Z,22.02
2019-04-06T06:42:53.462Z,22.04
2019-04-06T06:45:19.897Z,22.06
2019-04-06T06:47:46.224Z,22.09
2019-04-06T06:50:12.578Z,22.09
2019-04-06T06:52:39.061Z,22.14
2019-04-06T06:55:05.328Z,22.19
2019-04-06T06:57:31.770Z,22.21
2019-04-06T06:59:58.152Z,22.24
2019-04-06T07:02:24.503Z,22.26
2019-04-06T07:04:50.845Z,22.28
2019-04-06T07:07:17.376Z,22.32
2019-04-06T07:09:43.558Z,22.34
2019-04-06T07:12:09.939Z,22.34
2019-04-06T07:14:36.311Z,22.35
2019-04-06T07:17:02.627Z,22.38
2019-04-06T07:19:29.004Z,22.40
2019-04-06T07:21:55.497Z,22.42
2019-04-06T07:24:21.770Z,22.43
2019-04-06T07:26:48.080Z,22.43
2019-04-06T07:29:14.567Z,22.46
2019-04-06T07:31:40.803Z,22.46
2019-04-06T07:34:07.396Z,22.48
2019-04-06T07:36:33.443Z,22.49
2019-04-06T07:38:59.810Z,22.52
2019-04-06T07:41:26.299Z,22.53
2019-04-06T07:43:52.620Z,22.55
2019-04-06T07:46:18.784Z,22.57
2019-04-06T07:48:45.436Z,22.60
2019-04-06T07:51:11.632Z,22.62
2019-04-06T07:53:37.985Z,22.63
2019-04-06T07:56:04.312Z,22.62
2019-04-06T07:58:30.714Z,22.66
2019-04-06T08:00:57.104Z,22.66
2019-04-06T08:03:23.413Z,22.68
2019-04-06T08:05:49.788Z,22.67
2019-04-06T08:08:16.165Z,22.70
2019-04-06T08:10:42.666Z,22.71
2019-04-06T08:13:09.187Z,22.73
2019-04-06T08:15:35.823Z,22.73
2019-04-06T08:18:02.530Z,22.73
2019-04-06T08:20:28.623Z,22.71
2019-04-06T08:22:55.114Z,22.76
2019-04-06T08:25:21.656Z,22.75
2019-04-06T08:27:48.010Z,22.75
2019-04-06T08:30:14.432Z,22.75
2019-04-06T08:32:40.589Z,22.75
2019-04-06T08:35:07.083Z,22.70
2019-04-06T08:37:33.452Z,22.72
2019-04-06T08:39:59.892Z,22.72
2019-04-06T08:42:26.114Z,22.71
2019-04-06T08:44:52.492Z,22.71
2019-04-06T08:47:18.825Z,22.72
2019-04-06T08:49:45.184Z,22.70
2019-04-06T08:52:11.934Z,22.71
2019-04-06T08:54:37.908Z,22.68
2019-04-06T08:57:04.307Z,22.66
2019-04-06T08:59:30.647Z,22.68
2019-04-06T09:01:56.985Z,22.66
2019-04-06T09:04:23.346Z,22.67
2019-04-06T09:06:49.721Z,22.66
2019-04-06T09:09:16.076Z,22.67
2019-04-06T09:11:42.412Z,22.68
2019-04-06T09:14:08.744Z,22.61
2019-04-06T09:16:35.159Z,22.65
2019-04-06T09:19:01.494Z,22.65
2019-04-06T09:21:27.808Z,22.61
2019-04-06T09:23:54.200Z,22.62
2019-04-06T09:26:20.499Z,22.60
2019-04-06T09:28:46.919Z,22.61
2019-04-06T09:31:13.331Z,22.66
2019-04-06T09:33:39.666Z,22.66
2019-04-06T09:36:06.207Z,22.64
2019-04-06T09:38:32.351Z,22.62
2019-04-06T09:40:58.815Z,22.61
2019-04-06T09:43:25.407Z,22.62
2019-04-06T09:45:51.602Z,22.60
2019-04-06T09:48:18.222Z,22.63
2019-04-06T09:50:44.290Z,22.60
2019-04-06T09:53:10.967Z,22.60
2019-04-06T09:55:37.288Z,22.60
2019-04-06T09:58:03.474Z,22.56
2019-04-06T10:00:29.877Z,22.55
2019-04-06T10:02:56.070Z,22.55
2019-04-06T10:05:22.461Z,22.53
2019-04-06T10:07:48.885Z,22.54
2019-04-06T10:10:15.157Z,22.56
2019-04-06T10:12:41.527Z,22.56
2019-04-06T10:15:07.867Z,22.56
2019-04-06T10:17:34.205Z,22.53
2019-04-06T10:20:00.842Z,22.57
2019-04-06T10:22:26.911Z,22.54
2019-04-06T10:24:53.291Z,22.54
2019-04-06T10:27:19.699Z,22.58
2019-04-06T10:29:49.195Z,22.56
2019-04-06T10:32:12.345Z,22.54
2019-04-06T10:34:38.675Z,22.60
2019-04-06T10:37:05.067Z,22.55
2019-04-06T10:39:31.445Z,22.58
2019-04-06T10:41:57.845Z,22.56
2019-04-06T10:44:24.390Z,22.58
2019-04-06T10:46:50.689Z,22.56
2019-04-06T10:49:17.013Z,22.54
2019-04-06T10:51:43.376Z,22.55
2019-04-06T10:54:09.713Z,22.56
2019-04-06T10:56:36.054Z,22.55
2019-04-06T10:59:03.682Z,22.61
2019-04-06T11:01:29.014Z,22.57
2019-04-06T11:03:55.339Z,22.55
2019-04-06T11:06:21.704Z,22.60
2019-04-06T11:08:48.087Z,22.60
2019-04-06T11:11:17.996Z,22.60
2019-04-06T11:13:40.782Z,22.58
2019-04-06T11:16:07.289Z,22.60
2019-04-06T11:18:33.455Z,22.62
2019-04-06T11:21:00.046Z,22.62
2019-04-06T11:23:26.274Z,22.60
2019-04-06T11:25:52.528Z,22.56
2019-04-06T11:28:19.070Z,22.57
2019-04-06T11:30:45.423Z,22.60
2019-04-06T11:33:11.810Z,22.60
2019-04-06T11:35:38.199Z,22.61
2019-04-06T11:38:04.569Z,22.60
2019-04-06T11:40:30.918Z,22.57
2019-04-06T11:42:57.336Z,22.61
2019-04-06T11:45:23.697Z,22.63
2019-04-06T11:47:50.000Z,22.63
2019-04-06T11:50:16.274Z,22.64
2019-04-06T11:52:42.611Z,22.61
2019-04-06T11:55:09.163Z,22.66
2019-04-06T11:57:35.292Z,22.65
2019-04-06T12:00:01.758Z,22.64
2019-04-06T12:02:28.153Z,22.65
2019-04-06T12:04:54.472Z,22.63
2019-04-06T12:07:23.363Z,22.64
2019-04-06T12:09:49.698Z,22.65
2019-04-06T12:12:16.091Z,22.62
2019-04-06T12:14:42.421Z,22.61
2019-04-06T12:17:08.850Z,22.61
2019-04-06T12:19:35.298Z,22.60
2019-04-06T12:22:01.489Z,22.61
2019-04-06T12:24:27.941Z,22.64
2019-04-06T12:26:54.177Z,22.64
2019-04-06T12:29:20.616Z,22.64
2019-04-06T12:31:46.908Z,22.62
2019-04-06T12:34:13.399Z,22.63
2019-04-06T12:36:39.600Z,22.63
2019-04-06T12:39:06.060Z,22.66
2019-04-06T12:41:32.403Z,22.64
2019-04-06T12:43:58.805Z,22.64
2019-04-06T12:46:25.109Z,22.63
2019-04-06T12:48:52.703Z,22.66
2019-04-06T12:51:17.807Z,22.66
2019-04-06T12:53:44.184Z,22.67
2019-04-06T12:56:10.524Z,22.70
2019-04-06T12:58:36.827Z,22.66
2019-04-06T13:01:03.157Z,22.64
2019-04-06T13:03:29.624Z,22.64
2019-04-06T13:05:56.187Z,22.65
2019-04-06T13:08:22.568Z,22.64
2019-04-06T13:10:48.681Z,22.64
2019-04-06T13:13:14.956Z,22.65
2019-04-06T13:15:41.383Z,22.65
2019-04-06T13:18:08.467Z,22.66
2019-04-06T13:20:34.541Z,22.65
2019-04-06T13:23:00.723Z,22.66
2019-04-06T13:25:27.432Z,22.67
2019-04-06T13:27:53.443Z,22.67
2019-04-06T13:30:19.952Z,22.65
2019-04-06T13:32:46.427Z,22.63
2019-04-06T13:35:12.802Z,22.66
2019-04-06T13:37:39.240Z,22.67
2019-04-06T13:40:05.498Z,22.65
2019-04-06T13:42:31.864Z,22.65
2019-04-06T13:44:58.376Z,22.66
2019-04-06T13:47:24.697Z,22.66
2019-04-06T13:49:51.413Z,22.63
2019-04-06T13:52:17.746Z,22.65
2019-04-06T13:54:44.137Z,22.66
2019-04-06T13:57:10.599Z,22.65
2019-04-06T13:59:36.850Z,22.63
2019-04-06T14:02:03.220Z,22.64
2019-04-06T14:04:29.864Z,22.64
2019-04-06T14:06:55.963Z,22.64
2019-04-06T14:09:22.227Z,22.60
2019-04-06T14:11:48.574Z,22.62
2019-04-06T14:14:14.956Z,22.63
2019-04-06T14:16:41.516Z,22.63
2019-04-06T14:19:07.862Z,22.60
2019-04-06T14:21:34.194Z,22.61
2019-04-06T14:24:00.665Z,22.60
2019-04-06T14:26:26.965Z,22.60
2019-04-06T14:28:53.298Z,22.62
2019-04-06T14:31:27.436Z,22.58
2019-04-06T14:33:46.159Z,22.63
2019-04-06T14:36:12.397Z,22.56
2019-04-06T14:38:38.838Z,22.56
2019-04-06T14:41:05.179Z,22.55
2019-04-06T14:43:31.496Z,22.57
2019-04-06T14:45:57.869Z,22.55
2019-04-06T14:48:24.505Z,22.53
2019-04-06T14:50:50.536Z,22.54
2019-04-06T14:53:17.109Z,22.58
2019-04-06T14:55:43.473Z,22.54
2019-04-06T14:58:09.635Z,22.55
2019-04-06T15:00:36.232Z,22.54
2019-04-06T15:03:02.689Z,22.52
2019-04-06T15:05:28.826Z,22.52
2019-04-06T15:07:56.846Z,22.49
2019-04-06T15:10:21.591Z,22.51
2019-04-06T15:12:47.987Z,22.50
2019-04-06T15:15:14.326Z,22.48
2019-04-06T15:17:40.681Z,22.48
2019-04-06T15:20:07.019Z,22.49
2019-04-06T15:22:33.369Z,22.46
2019-04-06T15:24:59.910Z,22.49
2019-04-06T15:27:26.132Z,22.46
2019-04-06T15:29:52.464Z,22.44
2019-04-06T15:32:18.778Z,22.48
2019-04-06T15:34:45.164Z,22.48
2019-04-06T15:37:11.495Z,22.44
2019-04-06T15:39:37.827Z,22.43
2019-04-06T15:42:04.232Z,22.43
2019-04-06T15:44:30.518Z,22.43
2019-04-06T15:46:56.850Z,22.44
2019-04-06T15:49:23.200Z,22.41
2019-04-06T15:51:49.590Z,22.39
2019-04-06T15:54:15.980Z,22.38
2019-04-06T15:56:42.421Z,22.39
2019-04-06T15:59:08.752Z,22.38
2019-04-06T16:01:35.145Z,22.35
2019-04-06T16:04:01.485Z,22.34
2019-04-06T16:06:27.817Z,22.33
2019-04-06T16:08:54.237Z,22.32
2019-04-06T16:11:20.835Z,22.33
2019-04-06T16:13:48.698Z,22.33
2019-04-06T16:16:13.330Z,22.31
2019-04-06T16:18:39.973Z,22.31
2019-04-06T16:21:06.391Z,22.28
2019-04-06T16:23:32.410Z,22.26
2019-04-06T16:25:58.661Z,22.25
2019-04-06T16:28:25.305Z,22.24
2019-04-06T16:30:51.892Z,22.25
2019-04-06T16:33:18.156Z,22.22
2019-04-06T16:35:44.088Z,22.20
2019-04-06T16:38:10.455Z,22.19
2019-04-06T16:40:36.789Z,22.19
2019-04-06T16:43:03.116Z,22.17
2019-04-06T16:45:29.796Z,22.17
2019-04-06T16:47:56.380Z,22.13
2019-04-06T16:50:22.543Z,22.12
2019-04-06T16:52:48.615Z,22.14
2019-04-06T16:55:14.952Z,22.08
2019-04-06T16:57:41.324Z,22.07
2019-04-06T17:00:18.917Z,22.08
2019-04-06T17:02:34.074Z,22.06
2019-04-06T17:05:00.388Z,22.03
2019-04-06T17:07:26.716Z,22.06
2019-04-06T17:09:53.267Z,21.99
2019-04-06T17:12:19.833Z,21.99
2019-04-06T17:14:45.848Z,21.98
2019-04-06T17:17:12.127Z,21.97
2019-04-06T17:19:38.475Z,21.94
2019-04-06T17:22:04.808Z,21.93
2019-04-06T17:24:31.513Z,21.90
2019-04-06T17:26:58.054Z,21.90
2019-04-06T17:29:24.453Z,21.91
2019-04-06T17:31:50.683Z,21.89
2019-04-06T17:34:16.744Z,21.87
2019-04-06T17:36:43.088Z,21.85
2019-04-06T17:39:09.526Z,21.82
2019-04-06T17:41:35.837Z,21.81
2019-04-06T17:44:02.317Z,21.82
2019-04-06T17:46:28.905Z,21.81
2019-04-06T17:48:54.932Z,21.81
2019-04-06T17:51:21.219Z,21.78
2019-04-06T17:53:47.558Z,21.77
2019-04-06T17:56:13.907Z,21.74
2019-04-06T17:58:40.275Z,21.75
2019-04-06T18:01:07.200Z,21.75
2019-04-06T18:03:33.213Z,21.74
2019-04-06T18:05:59.345Z,21.72
2019-04-06T18:08:25.784Z,21.73
2019-04-06T18:10:52.755Z,21.70
2019-04-06T18:13:18.347Z,21.67
2019-04-06T18:15:44.686Z,21.67
2019-04-06T18:18:11.113Z,21.69
2019-04-06T18:20:37.418Z,21.67
2019-04-06T18:23:03.747Z,21.67
2019-04-06T18:25:30.169Z,21.66
2019-04-06T18:27:56.501Z,21.66
2019-04-06T18:30:22.900Z,21.63
2019-04-06T18:32:59.962Z,21.62
2019-04-06T18:35:15.570Z,21.60
2019-04-06T18:37:42.375Z,21.58
2019-04-06T18:40:08.243Z,21.58
2019-04-06T18:42:34.620Z,21.57
2019-04-06T18:45:01.001Z,21.57
2019-04-06T18:47:27.537Z,21.58
2019-04-06T18:49:53.685Z,21.55
2019-04-06T18:52:20.101Z,21.55
2019-04-06T18:54:46.377Z,21.55
2019-04-06T18:57:12.766Z,21.55
2019-04-06T18:59:39.160Z,21.51
2019-04-06T19:02:07.390Z,21.51
2019-04-06T19:04:31.887Z,21.48
2019-04-06T19:06:58.237Z,21.46
2019-04-06T19:09:25.470Z,21.47
2019-04-06T19:11:55.083Z,21.47
2019-04-06T19:14:17.323Z,21.43
2019-04-06T19:16:43.703Z,21.43
2019-04-06T19:19:10.005Z,21.44
2019-04-06T19:21:36.336Z,21.42
2019-04-06T19:24:03.130Z,21.39
2019-04-06T19:26:29.082Z,21.43
2019-04-06T19:28:55.451Z,21.36
2019-04-06T19:31:21.759Z,21.37
2019-04-06T19:33:48.090Z,21.35
2019-04-06T19:36:14.706Z,21.35
2019-04-06T19:38:40.810Z,21.34
2019-04-06T19:41:07.109Z,21.32
2019-04-06T19:43:33.471Z,21.32
2019-04-06T19:45:59.843Z,21.30
2019-04-06T19:48:26.196Z,21.30
2019-04-06T19:50:52.541Z,21.28
2019-04-06T19:53:18.899Z,21.28
2019-04-06T19:55:45.552Z,21.25
2019-04-06T19:58:11.627Z,21.27
2019-04-06T20:00:38.001Z,21.24
2019-04-06T20:03:04.355Z,21.24
2019-04-06T20:05:30.963Z,21.20
2019-04-06T20:07:57.028Z,21.21
2019-04-06T20:10:23.410Z,21.20
2019-04-06T20:12:50.322Z,21.19
2019-04-06T20:15:16.844Z,21.20
2019-04-06T20:17:42.724Z,21.17
2019-04-06T20:20:08.985Z,21.17
2019-04-06T20:22:35.383Z,21.15
2019-04-06T20:25:02.142Z,21.16
2019-04-06T20:27:28.546Z,21.15
2019-04-06T20:29:54.443Z,21.16
2019-04-06T20:32:21.302Z,21.11
2019-04-06T20:34:47.176Z,21.14
2019-04-06T20:37:13.874Z,21.11
2019-04-06T20:39:39.873Z,21.10
2019-04-06T20:42:06.199Z,21.10
2019-04-06T20:44:32.581Z,21.10
2019-04-06T20:46:59.445Z,21.08
2019-04-06T20:49:25.285Z,21.06
2019-04-06T20:51:52.262Z,21.08
2019-04-06T20:54:18.136Z,21.07
2019-04-06T20:56:54.821Z,21.06
2019-04-06T20:59:10.763Z,21.04
2019-04-06T21:01:37.147Z,21.02
2019-04-06T21:04:03.437Z,21.02
2019-04-06T21:06:29.785Z,21.02
2019-04-06T21:08:56.183Z,21.01
2019-04-06T21:11:22.435Z,21.01
2019-04-06T21:13:48.764Z,21.01
2019-04-06T21:16:15.258Z,21.01
2019-04-06T21:18:41.882Z,21.00
2019-04-06T21:21:07.851Z,20.98
2019-04-06T21:23:34.305Z,20.96
2019-04-06T21:26:00.703Z,20.96
2019-04-06T21:28:27.037Z,20.94
2019-04-06T21:30:53.419Z,20.95
2019-04-06T21:33:19.796Z,20.94
2019-04-06T21:35:46.074Z,20.92
2019-04-06T21:38:12.406Z,20.92
2019-04-06T21:40:38.746Z,20.91
2019-04-06T21:43:05.098Z,20.90
2019-04-06T21:45:31.500Z,20.89
2019-04-06T21:47:57.804Z,20.87
2019-04-06T21:50:24.168Z,20.88
2019-04-06T21:52:50.831Z,20.87
2019-04-06T21:55:16.937Z,20.88
2019-04-06T21:57:43.331Z,20.85
2019-04-06T22:00:09.666Z,20.87
2019-04-06T22:02:35.990Z,20.86
2019-04-06T22:05:03.007Z,20.85
2019-04-06T22:07:28.832Z,20.85
2019-04-06T22:09:55.062Z,20.83
2019-04-06T22:12:21.733Z,20.81
2019-04-06T22:14:47.724Z,20.81
2019-04-06T22:17:14.393Z,20.81
2019-04-06T22:19:40.973Z,20.78
2019-04-06T22:22:06.766Z,20.78
2019-04-06T22:24:33.112Z,20.78
2019-04-06T22:27:00.081Z,20.77
2019-04-06T22:29:25.906Z,20.77
2019-04-06T22:31:52.708Z,20.76
2019-04-06T22:34:18.572Z,20.76
2019-04-06T22:36:45.154Z,20.73
2019-04-06T22:39:11.406Z,20.72
2019-04-06T22:41:37.770Z,20.72
2019-04-06T22:44:04.207Z,20.71
2019-04-06T22:46:30.588Z,20.69
2019-04-06T22:48:57.427Z,20.70
2019-04-06T22:51:23.213Z,20.70
2019-04-06T22:53:49.604Z,20.68
2019-04-06T22:56:16.567Z,20.66
2019-04-06T22:58:42.327Z,20.68
2019-04-06T23:01:08.766Z,20.65
2019-04-06T23:03:35.516Z,20.64
2019-04-06T23:06:01.396Z,20.63
2019-04-06T23:08:27.790Z,20.63
2019-04-06T23:10:54.099Z,20.61
2019-04-06T23:13:20.481Z,20.62
2019-04-06T23:15:47.938Z,20.61
2019-04-06T23:18:13.159Z,20.63
2019-04-06T23:20:39.507Z,20.60
2019-04-06T23:23:05.908Z,20.57
2019-04-06T23:25:32.368Z,20.58
2019-04-06T23:27:58.623Z,20.56
2019-04-06T23:30:25.001Z,20.56
2019-04-06T23:32:51.558Z,20.56
2019-04-06T23:35:18.526Z,20.56
2019-04-06T23:37:44.686Z,20.54
2019-04-06T23:40:11.196Z,20.54
2019-04-06T23:42:36.898Z,20.50
2019-04-06T23:45:03.574Z,20.50
2019-04-06T23:47:29.754Z,20.48
2019-04-06T23:49:56.268Z,20.51
2019-04-06T23:52:22.777Z,20.47
2019-04-06T23:54:48.811Z,20.48
2019-04-06T23:57:15.194Z,20.47
2019-04-06T23:59:42.212Z,20.45
